sensor_id;sensor_type;location;lat;lon;timestamp;temperature;humidity
46378;DHT22;32083;47.360;9.650;2024-01-16T00:01:57;1.50;95.30
46378;DHT22;32083;47.360;9.650;2024-01-16T00:04:23;1.50;95.60
46378;DHT22;32083;47.360;9.650;2024-01-16T00:06:52;1.50;95.30
46378;DHT22;32083;47.360;9.650;2024-01-16T00:09:18;1.50;95.30
46378;DHT22;32083;47.360;9.650;2024-01-16T00:11:44;1.50;95.10
46378;DHT22;32083;47.360;9.650;2024-01-16T00:14:10;1.40;94.50
46378;DHT22;32083;47.360;9.650;2024-01-16T00:16:43;1.40;94.90
46378;DHT22;32083;47.360;9.650;2024-01-16T00:19:09;1.30;94.40
46378;DHT22;32083;47.360;9.650;2024-01-16T00:21:41;1.20;94.80
46378;DHT22;32083;47.360;9.650;2024-01-16T00:24:07;1.20;94.70
46378;DHT22;32083;47.360;9.650;2024-01-16T00:26:33;1.20;94.40
46378;DHT22;32083;47.360;9.650;2024-01-16T00:28:59;1.20;94.30
46378;DHT22;32083;47.360;9.650;2024-01-16T00:31:26;1.20;94.60
46378;DHT22;32083;47.360;9.650;2024-01-16T00:33:51;1.30;94.50
46378;DHT22;32083;47.360;9.650;2024-01-16T00:36:17;1.30;94.50
46378;DHT22;32083;47.360;9.650;2024-01-16T00:38:43;1.30;94.20
46378;DHT22;32083;47.360;9.650;2024-01-16T00:41:09;1.20;94.30
46378;DHT22;32083;47.360;9.650;2024-01-16T00:43:35;1.20;94.50
46378;DHT22;32083;47.360;9.650;2024-01-16T00:46:01;1.30;94.70
46378;DHT22;32083;47.360;9.650;2024-01-16T00:48:27;1.30;94.60
46378;DHT22;32083;47.360;9.650;2024-01-16T00:50:52;1.20;94.80
46378;DHT22;32083;47.360;9.650;2024-01-16T00:53:18;1.20;95.00
46378;DHT22;32083;47.360;9.650;2024-01-16T00:55:44;1.20;95.00
46378;DHT22;32083;47.360;9.650;2024-01-16T00:58:10;1.20;94.90
46378;DHT22;32083;47.360;9.650;2024-01-16T01:00:35;1.20;94.90
46378;DHT22;32083;47.360;9.650;2024-01-16T01:03:05;1.10;93.90
46378;DHT22;32083;47.360;9.650;2024-01-16T01:05:31;1.10;93.70
46378;DHT22;32083;47.360;9.650;2024-01-16T01:07:57;1.20;93.80
46378;DHT22;32083;47.360;9.650;2024-01-16T01:10:24;1.20;93.80
46378;DHT22;32083;47.360;9.650;2024-01-16T01:12:50;1.20;94.20
46378;DHT22;32083;47.360;9.650;2024-01-16T01:15:18;1.30;94.10
46378;DHT22;32083;47.360;9.650;2024-01-16T01:17:44;1.30;93.90
46378;DHT22;32083;47.360;9.650;2024-01-16T01:20:10;1.20;94.10
46378;DHT22;32083;47.360;9.650;2024-01-16T01:22:37;1.20;94.60
46378;DHT22;32083;47.360;9.650;2024-01-16T01:25:04;1.20;94.20
46378;DHT22;32083;47.360;9.650;2024-01-16T01:27:29;1.20;94.60
46378;DHT22;32083;47.360;9.650;2024-01-16T01:29:55;1.10;94.70
46378;DHT22;32083;47.360;9.650;2024-01-16T01:32:21;1.10;94.60
46378;DHT22;32083;47.360;9.650;2024-01-16T01:34:47;1.10;95.00
46378;DHT22;32083;47.360;9.650;2024-01-16T01:37:13;1.10;95.00
46378;DHT22;32083;47.360;9.650;2024-01-16T01:39:40;1.00;95.10
46378;DHT22;32083;47.360;9.650;2024-01-16T01:42:05;1.00;95.50
46378;DHT22;32083;47.360;9.650;2024-01-16T01:44:31;1.00;95.40
46378;DHT22;32083;47.360;9.650;2024-01-16T01:46:57;1.00;95.30
46378;DHT22;32083;47.360;9.650;2024-01-16T01:49:25;0.90;95.60
46378;DHT22;32083;47.360;9.650;2024-01-16T01:51:52;0.90;95.50
46378;DHT22;32083;47.360;9.650;2024-01-16T01:54:19;0.90;95.70
46378;DHT22;32083;47.360;9.650;2024-01-16T01:56:47;0.90;95.60
46378;DHT22;32083;47.360;9.650;2024-01-16T01:59:14;0.90;95.60
46378;DHT22;32083;47.360;9.650;2024-01-16T02:01:41;0.90;95.50
46378;DHT22;32083;47.360;9.650;2024-01-16T02:04:08;0.80;95.60
46378;DHT22;32083;47.360;9.650;2024-01-16T02:06:36;0.80;95.70
46378;DHT22;32083;47.360;9.650;2024-01-16T02:09:02;0.80;95.90
46378;DHT22;32083;47.360;9.650;2024-01-16T02:11:27;0.80;95.70
46378;DHT22;32083;47.360;9.650;2024-01-16T02:13:53;0.80;95.70
46378;DHT22;32083;47.360;9.650;2024-01-16T02:18:45;0.80;95.30
46378;DHT22;32083;47.360;9.650;2024-01-16T02:21:15;0.90;95.30
46378;DHT22;32083;47.360;9.650;2024-01-16T02:23:42;0.90;95.00
46378;DHT22;32083;47.360;9.650;2024-01-16T02:26:08;0.80;95.10
46378;DHT22;32083;47.360;9.650;2024-01-16T02:28:34;0.80;95.40
46378;DHT22;32083;47.360;9.650;2024-01-16T02:31:00;0.80;95.30
46378;DHT22;32083;47.360;9.650;2024-01-16T02:33:26;0.90;95.20
46378;DHT22;32083;47.360;9.650;2024-01-16T02:35:52;0.90;95.40
46378;DHT22;32083;47.360;9.650;2024-01-16T02:38:17;0.90;95.20
46378;DHT22;32083;47.360;9.650;2024-01-16T02:40:43;0.80;95.20
46378;DHT22;32083;47.360;9.650;2024-01-16T02:43:09;0.90;95.10
46378;DHT22;32083;47.360;9.650;2024-01-16T02:45:35;0.90;95.20
46378;DHT22;32083;47.360;9.650;2024-01-16T02:48:01;0.90;94.90
46378;DHT22;32083;47.360;9.650;2024-01-16T02:50:28;0.90;94.90
46378;DHT22;32083;47.360;9.650;2024-01-16T02:52:54;0.80;95.10
46378;DHT22;32083;47.360;9.650;2024-01-16T02:55:20;0.90;95.30
46378;DHT22;32083;47.360;9.650;2024-01-16T02:57:46;0.90;95.40
46378;DHT22;32083;47.360;9.650;2024-01-16T03:00:12;0.90;95.10
46378;DHT22;32083;47.360;9.650;2024-01-16T03:02:39;0.90;95.20
46378;DHT22;32083;47.360;9.650;2024-01-16T03:05:05;0.90;95.10
46378;DHT22;32083;47.360;9.650;2024-01-16T03:07:32;0.80;95.10
46378;DHT22;32083;47.360;9.650;2024-01-16T03:09:57;0.90;95.20
46378;DHT22;32083;47.360;9.650;2024-01-16T03:12:23;0.90;95.10
46378;DHT22;32083;47.360;9.650;2024-01-16T03:14:49;0.90;95.00
46378;DHT22;32083;47.360;9.650;2024-01-16T03:17:15;0.80;95.00
46378;DHT22;32083;47.360;9.650;2024-01-16T03:19:41;0.90;95.10
46378;DHT22;32083;47.360;9.650;2024-01-16T03:22:09;0.80;95.10
46378;DHT22;32083;47.360;9.650;2024-01-16T03:24:35;0.80;95.40
46378;DHT22;32083;47.360;9.650;2024-01-16T03:27:01;0.80;95.30
46378;DHT22;32083;47.360;9.650;2024-01-16T03:29:27;0.80;95.40
46378;DHT22;32083;47.360;9.650;2024-01-16T03:31:52;0.80;95.30
46378;DHT22;32083;47.360;9.650;2024-01-16T03:34:19;0.80;95.90
46378;DHT22;32083;47.360;9.650;2024-01-16T03:36:44;0.80;95.50
46378;DHT22;32083;47.360;9.650;2024-01-16T03:39:10;0.80;95.30
46378;DHT22;32083;47.360;9.650;2024-01-16T03:41:37;0.80;95.30
46378;DHT22;32083;47.360;9.650;2024-01-16T03:44:03;0.80;95.30
46378;DHT22;32083;47.360;9.650;2024-01-16T03:46:29;0.80;95.50
46378;DHT22;32083;47.360;9.650;2024-01-16T03:48:55;0.80;96.10
46378;DHT22;32083;47.360;9.650;2024-01-16T03:51:21;0.80;96.10
46378;DHT22;32083;47.360;9.650;2024-01-16T03:53:46;0.90;96.10
46378;DHT22;32083;47.360;9.650;2024-01-16T03:56:12;0.90;96.10
46378;DHT22;32083;47.360;9.650;2024-01-16T03:58:40;0.90;96.00
46378;DHT22;32083;47.360;9.650;2024-01-16T04:01:07;0.90;96.00
46378;DHT22;32083;47.360;9.650;2024-01-16T04:03:33;0.90;96.20
46378;DHT22;32083;47.360;9.650;2024-01-16T04:06:00;0.80;96.00
46378;DHT22;32083;47.360;9.650;2024-01-16T04:08:26;0.80;96.30
46378;DHT22;32083;47.360;9.650;2024-01-16T04:10:51;0.80;96.40
46378;DHT22;32083;47.360;9.650;2024-01-16T04:13:17;0.80;96.40
46378;DHT22;32083;47.360;9.650;2024-01-16T04:15:43;0.80;96.70
46378;DHT22;32083;47.360;9.650;2024-01-16T04:18:09;0.80;96.80
46378;DHT22;32083;47.360;9.650;2024-01-16T04:20:35;0.70;96.80
46378;DHT22;32083;47.360;9.650;2024-01-16T04:23:01;0.80;96.80
46378;DHT22;32083;47.360;9.650;2024-01-16T04:25:27;0.80;97.50
46378;DHT22;32083;47.360;9.650;2024-01-16T04:27:53;0.80;98.00
46378;DHT22;32083;47.360;9.650;2024-01-16T04:30:18;0.80;97.90
46378;DHT22;32083;47.360;9.650;2024-01-16T04:32:46;0.80;97.80
46378;DHT22;32083;47.360;9.650;2024-01-16T04:35:11;0.70;97.70
46378;DHT22;32083;47.360;9.650;2024-01-16T04:37:37;0.80;98.00
46378;DHT22;32083;47.360;9.650;2024-01-16T04:40:04;0.80;97.80
46378;DHT22;32083;47.360;9.650;2024-01-16T04:42:31;0.70;98.70
46378;DHT22;32083;47.360;9.650;2024-01-16T04:44:57;0.70;98.80
46378;DHT22;32083;47.360;9.650;2024-01-16T04:47:23;0.70;98.80
46378;DHT22;32083;47.360;9.650;2024-01-16T04:49:49;0.70;99.10
46378;DHT22;32083;47.360;9.650;2024-01-16T04:52:14;0.70;98.90
46378;DHT22;32083;47.360;9.650;2024-01-16T04:54:41;0.70;99.30
46378;DHT22;32083;47.360;9.650;2024-01-16T04:57:06;0.70;99.00
46378;DHT22;32083;47.360;9.650;2024-01-16T04:59:32;0.70;99.40
46378;DHT22;32083;47.360;9.650;2024-01-16T05:01:58;0.70;99.30
46378;DHT22;32083;47.360;9.650;2024-01-16T05:04:23;0.70;99.30
46378;DHT22;32083;47.360;9.650;2024-01-16T05:06:51;0.70;99.30
46378;DHT22;32083;47.360;9.650;2024-01-16T05:09:18;0.70;99.40
46378;DHT22;32083;47.360;9.650;2024-01-16T05:11:45;0.70;99.40
46378;DHT22;32083;47.360;9.650;2024-01-16T05:14:11;0.70;99.40
46378;DHT22;32083;47.360;9.650;2024-01-16T05:16:37;0.60;99.80
46378;DHT22;32083;47.360;9.650;2024-01-16T05:19:02;0.70;99.70
46378;DHT22;32083;47.360;9.650;2024-01-16T05:21:28;0.70;99.30
46378;DHT22;32083;47.360;9.650;2024-01-16T05:23:54;0.70;99.40
46378;DHT22;32083;47.360;9.650;2024-01-16T05:26:20;0.70;99.30
46378;DHT22;32083;47.360;9.650;2024-01-16T05:28:46;0.70;99.40
46378;DHT22;32083;47.360;9.650;2024-01-16T05:31:11;0.60;99.90
46378;DHT22;32083;47.360;9.650;2024-01-16T05:33:37;0.60;99.90
46378;DHT22;32083;47.360;9.650;2024-01-16T05:36:03;0.60;99.90
46378;DHT22;32083;47.360;9.650;2024-01-16T05:38:29;0.50;99.90
46378;DHT22;32083;47.360;9.650;2024-01-16T05:40:55;0.50;99.70
46378;DHT22;32083;47.360;9.650;2024-01-16T05:43:20;0.50;99.70
46378;DHT22;32083;47.360;9.650;2024-01-16T05:45:46;0.50;99.90
46378;DHT22;32083;47.360;9.650;2024-01-16T05:48:12;0.50;99.90
46378;DHT22;32083;47.360;9.650;2024-01-16T05:50:38;0.50;99.70
46378;DHT22;32083;47.360;9.650;2024-01-16T05:53:03;0.50;99.50
46378;DHT22;32083;47.360;9.650;2024-01-16T05:55:29;0.50;99.80
46378;DHT22;32083;47.360;9.650;2024-01-16T05:57:58;0.40;99.90
46378;DHT22;32083;47.360;9.650;2024-01-16T06:00:26;0.40;99.90
46378;DHT22;32083;47.360;9.650;2024-01-16T06:02:52;0.40;99.90
46378;DHT22;32083;47.360;9.650;2024-01-16T06:05:17;0.30;99.90
46378;DHT22;32083;47.360;9.650;2024-01-16T06:07:43;0.30;99.90
46378;DHT22;32083;47.360;9.650;2024-01-16T06:10:12;0.30;99.90
46378;DHT22;32083;47.360;9.650;2024-01-16T06:12:38;0.30;99.90
46378;DHT22;32083;47.360;9.650;2024-01-16T06:15:04;0.30;99.90
46378;DHT22;32083;47.360;9.650;2024-01-16T06:17:30;0.20;99.90
46378;DHT22;32083;47.360;9.650;2024-01-16T06:19:55;0.20;99.90
46378;DHT22;32083;47.360;9.650;2024-01-16T06:22:21;0.20;99.90
46378;DHT22;32083;47.360;9.650;2024-01-16T06:24:47;0.20;99.90
46378;DHT22;32083;47.360;9.650;2024-01-16T06:27:13;0.10;99.90
46378;DHT22;32083;47.360;9.650;2024-01-16T06:29:45;0.10;99.90
46378;DHT22;32083;47.360;9.650;2024-01-16T06:32:11;0.10;99.90
46378;DHT22;32083;47.360;9.650;2024-01-16T06:34:36;0.00;99.90
46378;DHT22;32083;47.360;9.650;2024-01-16T06:37:02;0.00;99.90
46378;DHT22;32083;47.360;9.650;2024-01-16T06:39:28;-0.10;99.90
46378;DHT22;32083;47.360;9.650;2024-01-16T06:41:54;-0.10;99.90
46378;DHT22;32083;47.360;9.650;2024-01-16T06:44:19;-0.20;99.90
46378;DHT22;32083;47.360;9.650;2024-01-16T06:46:45;-0.30;99.90
46378;DHT22;32083;47.360;9.650;2024-01-16T06:49:11;-0.30;99.90
46378;DHT22;32083;47.360;9.650;2024-01-16T06:51:37;-0.30;99.90
46378;DHT22;32083;47.360;9.650;2024-01-16T06:54:03;-0.40;99.90
46378;DHT22;32083;47.360;9.650;2024-01-16T06:56:29;-0.40;99.90
46378;DHT22;32083;47.360;9.650;2024-01-16T06:58:55;-0.40;99.90
46378;DHT22;32083;47.360;9.650;2024-01-16T07:01:21;-0.40;99.90
46378;DHT22;32083;47.360;9.650;2024-01-16T07:03:47;-0.40;99.90
46378;DHT22;32083;47.360;9.650;2024-01-16T07:06:12;-0.50;99.90
46378;DHT22;32083;47.360;9.650;2024-01-16T07:08:38;-0.50;99.90
46378;DHT22;32083;47.360;9.650;2024-01-16T07:11:04;-0.50;99.90
46378;DHT22;32083;47.360;9.650;2024-01-16T07:13:33;-0.50;99.90
46378;DHT22;32083;47.360;9.650;2024-01-16T07:16:00;-0.60;99.90
46378;DHT22;32083;47.360;9.650;2024-01-16T07:18:27;-0.60;99.90
46378;DHT22;32083;47.360;9.650;2024-01-16T07:20:53;-0.60;99.90
46378;DHT22;32083;47.360;9.650;2024-01-16T07:23:19;-0.70;99.90
46378;DHT22;32083;47.360;9.650;2024-01-16T07:25:45;-0.70;99.90
46378;DHT22;32083;47.360;9.650;2024-01-16T07:28:14;-0.80;99.90
46378;DHT22;32083;47.360;9.650;2024-01-16T07:30:40;-0.70;99.90
46378;DHT22;32083;47.360;9.650;2024-01-16T07:33:06;-0.70;99.90
46378;DHT22;32083;47.360;9.650;2024-01-16T07:35:32;-0.70;99.90
46378;DHT22;32083;47.360;9.650;2024-01-16T07:37:57;-0.80;99.90
46378;DHT22;32083;47.360;9.650;2024-01-16T07:40:23;-0.80;99.90
46378;DHT22;32083;47.360;9.650;2024-01-16T07:42:49;-0.80;99.90
46378;DHT22;32083;47.360;9.650;2024-01-16T07:45:15;-0.80;99.90
46378;DHT22;32083;47.360;9.650;2024-01-16T07:47:41;-0.90;99.90
46378;DHT22;32083;47.360;9.650;2024-01-16T07:50:07;-0.80;99.90
46378;DHT22;32083;47.360;9.650;2024-01-16T07:52:33;-0.80;99.90
46378;DHT22;32083;47.360;9.650;2024-01-16T07:54:59;-0.90;99.90
46378;DHT22;32083;47.360;9.650;2024-01-16T07:57:24;-0.90;99.90
46378;DHT22;32083;47.360;9.650;2024-01-16T07:59:50;-0.90;99.90
46378;DHT22;32083;47.360;9.650;2024-01-16T08:02:16;-0.90;99.90
46378;DHT22;32083;47.360;9.650;2024-01-16T08:04:42;-0.90;99.90
46378;DHT22;32083;47.360;9.650;2024-01-16T08:07:08;-1.00;99.90
46378;DHT22;32083;47.360;9.650;2024-01-16T08:09:34;-0.90;99.90
46378;DHT22;32083;47.360;9.650;2024-01-16T08:12:00;-0.90;99.90
46378;DHT22;32083;47.360;9.650;2024-01-16T08:14:28;-0.90;99.90
46378;DHT22;32083;47.360;9.650;2024-01-16T08:16:54;-0.90;99.90
46378;DHT22;32083;47.360;9.650;2024-01-16T08:19:20;-0.90;99.90
46378;DHT22;32083;47.360;9.650;2024-01-16T08:21:46;-0.90;99.90
46378;DHT22;32083;47.360;9.650;2024-01-16T08:24:11;-0.90;99.90
46378;DHT22;32083;47.360;9.650;2024-01-16T08:26:38;-0.90;99.90
46378;DHT22;32083;47.360;9.650;2024-01-16T08:29:03;-0.90;99.90
46378;DHT22;32083;47.360;9.650;2024-01-16T08:31:30;-0.90;99.90
46378;DHT22;32083;47.360;9.650;2024-01-16T08:33:56;-0.90;99.90
46378;DHT22;32083;47.360;9.650;2024-01-16T08:36:22;-0.80;99.90
46378;DHT22;32083;47.360;9.650;2024-01-16T08:38:48;-0.70;99.90
46378;DHT22;32083;47.360;9.650;2024-01-16T08:41:14;-0.60;99.90
46378;DHT22;32083;47.360;9.650;2024-01-16T08:43:40;-0.60;99.90
46378;DHT22;32083;47.360;9.650;2024-01-16T08:46:05;-0.50;99.90
46378;DHT22;32083;47.360;9.650;2024-01-16T08:48:32;-0.50;99.90
46378;DHT22;32083;47.360;9.650;2024-01-16T08:50:58;-0.40;99.90
46378;DHT22;32083;47.360;9.650;2024-01-16T08:53:24;-0.50;99.90
46378;DHT22;32083;47.360;9.650;2024-01-16T08:55:50;-0.50;99.90
46378;DHT22;32083;47.360;9.650;2024-01-16T08:58:16;-0.40;99.90
46378;DHT22;32083;47.360;9.650;2024-01-16T09:00:41;-0.40;99.90
46378;DHT22;32083;47.360;9.650;2024-01-16T09:03:07;-0.40;99.90
46378;DHT22;32083;47.360;9.650;2024-01-16T09:05:33;-0.40;99.90
46378;DHT22;32083;47.360;9.650;2024-01-16T09:08:04;-0.40;99.90
46378;DHT22;32083;47.360;9.650;2024-01-16T09:10:29;-0.40;99.90
46378;DHT22;32083;47.360;9.650;2024-01-16T09:12:55;-0.40;99.90
46378;DHT22;32083;47.360;9.650;2024-01-16T09:15:21;-0.40;99.90
46378;DHT22;32083;47.360;9.650;2024-01-16T09:17:47;-0.50;99.90
46378;DHT22;32083;47.360;9.650;2024-01-16T09:20:12;-0.50;99.90
46378;DHT22;32083;47.360;9.650;2024-01-16T09:22:38;-0.40;99.90
46378;DHT22;32083;47.360;9.650;2024-01-16T09:25:04;-0.40;99.90
46378;DHT22;32083;47.360;9.650;2024-01-16T09:27:30;-0.30;99.90
46378;DHT22;32083;47.360;9.650;2024-01-16T09:29:56;-0.30;99.90
46378;DHT22;32083;47.360;9.650;2024-01-16T09:32:22;-0.20;99.90
46378;DHT22;32083;47.360;9.650;2024-01-16T09:34:48;-0.20;99.90
46378;DHT22;32083;47.360;9.650;2024-01-16T09:37:14;-0.20;99.90
46378;DHT22;32083;47.360;9.650;2024-01-16T09:39:41;-0.20;99.90
46378;DHT22;32083;47.360;9.650;2024-01-16T09:42:06;-0.10;99.90
46378;DHT22;32083;47.360;9.650;2024-01-16T09:44:32;-0.10;99.90
46378;DHT22;32083;47.360;9.650;2024-01-16T09:47:01;0.00;99.90
46378;DHT22;32083;47.360;9.650;2024-01-16T09:49:29;0.10;99.90
46378;DHT22;32083;47.360;9.650;2024-01-16T09:51:55;0.10;99.90
46378;DHT22;32083;47.360;9.650;2024-01-16T09:54:23;0.20;99.90
46378;DHT22;32083;47.360;9.650;2024-01-16T09:56:51;0.20;99.90
46378;DHT22;32083;47.360;9.650;2024-01-16T09:59:20;0.20;99.90
46378;DHT22;32083;47.360;9.650;2024-01-16T10:01:49;0.30;99.90
46378;DHT22;32083;47.360;9.650;2024-01-16T10:04:16;0.30;99.90
46378;DHT22;32083;47.360;9.650;2024-01-16T10:06:41;0.40;99.90
46378;DHT22;32083;47.360;9.650;2024-01-16T10:09:10;0.40;99.90
46378;DHT22;32083;47.360;9.650;2024-01-16T10:11:37;0.40;99.90
46378;DHT22;32083;47.360;9.650;2024-01-16T10:14:03;0.30;99.90
46378;DHT22;32083;47.360;9.650;2024-01-16T10:19:51;0.30;99.90
46378;DHT22;32083;47.360;9.650;2024-01-16T10:22:22;0.40;99.90
46378;DHT22;32083;47.360;9.650;2024-01-16T10:25:06;0.40;99.90
46378;DHT22;32083;47.360;9.650;2024-01-16T10:27:33;0.40;99.90
46378;DHT22;32083;47.360;9.650;2024-01-16T10:29:59;0.40;99.80
46378;DHT22;32083;47.360;9.650;2024-01-16T10:32:29;0.50;99.80
46378;DHT22;32083;47.360;9.650;2024-01-16T10:35:07;0.60;99.60
46378;DHT22;32083;47.360;9.650;2024-01-16T10:37:51;0.60;99.50
46378;DHT22;32083;47.360;9.650;2024-01-16T10:40:20;0.70;99.10
46378;DHT22;32083;47.360;9.650;2024-01-16T10:42:58;0.80;99.10
46378;DHT22;32083;47.360;9.650;2024-01-16T10:45:24;0.80;99.00
46378;DHT22;32083;47.360;9.650;2024-01-16T10:48:03;0.90;98.70
46378;DHT22;32083;47.360;9.650;2024-01-16T10:50:30;1.00;98.20
46378;DHT22;32083;47.360;9.650;2024-01-16T10:52:59;1.10;98.80
46378;DHT22;32083;47.360;9.650;2024-01-16T10:55:28;1.10;98.40
46378;DHT22;32083;47.360;9.650;2024-01-16T10:57:56;1.20;98.60
46378;DHT22;32083;47.360;9.650;2024-01-16T11:00:23;1.20;97.10
46378;DHT22;32083;47.360;9.650;2024-01-16T11:03:06;1.30;97.80
46378;DHT22;32083;47.360;9.650;2024-01-16T11:05:33;1.30;97.90
46378;DHT22;32083;47.360;9.650;2024-01-16T11:08:00;1.30;97.10
46378;DHT22;32083;47.360;9.650;2024-01-16T11:10:27;1.40;97.70
46378;DHT22;32083;47.360;9.650;2024-01-16T11:12:54;1.40;97.30
46378;DHT22;32083;47.360;9.650;2024-01-16T11:15:21;1.40;97.40
46378;DHT22;32083;47.360;9.650;2024-01-16T11:17:47;1.40;97.10
46378;DHT22;32083;47.360;9.650;2024-01-16T11:20:15;1.40;97.50
46378;DHT22;32083;47.360;9.650;2024-01-16T11:22:44;1.50;97.10
46378;DHT22;32083;47.360;9.650;2024-01-16T11:25:15;1.50;97.00
46378;DHT22;32083;47.360;9.650;2024-01-16T11:27:42;1.60;96.60
46378;DHT22;32083;47.360;9.650;2024-01-16T11:30:12;1.60;96.40
46378;DHT22;32083;47.360;9.650;2024-01-16T11:32:39;1.70;96.30
46378;DHT22;32083;47.360;9.650;2024-01-16T11:35:10;1.70;95.70
46378;DHT22;32083;47.360;9.650;2024-01-16T11:37:39;1.80;95.70
46378;DHT22;32083;47.360;9.650;2024-01-16T11:43:34;2.00;95.50
46378;DHT22;32083;47.360;9.650;2024-01-16T11:46:17;2.10;95.90
46378;DHT22;32083;47.360;9.650;2024-01-16T11:49:02;2.20;95.00
46378;DHT22;32083;47.360;9.650;2024-01-16T11:51:45;2.30;94.80
46378;DHT22;32083;47.360;9.650;2024-01-16T11:54:29;2.40;95.20
46378;DHT22;32083;47.360;9.650;2024-01-16T12:00:19;2.50;95.10
46378;DHT22;32083;47.360;9.650;2024-01-16T12:05:11;2.60;94.20
46378;DHT22;32083;47.360;9.650;2024-01-16T12:07:50;2.60;93.80
46378;DHT22;32083;47.360;9.650;2024-01-16T12:10:24;2.70;94.70
46378;DHT22;32083;47.360;9.650;2024-01-16T12:12:51;2.80;94.40
46378;DHT22;32083;47.360;9.650;2024-01-16T12:15:21;2.80;93.90
46378;DHT22;32083;47.360;9.650;2024-01-16T12:17:58;2.90;93.40
46378;DHT22;32083;47.360;9.650;2024-01-16T12:20:26;2.90;93.80
46378;DHT22;32083;47.360;9.650;2024-01-16T12:22:57;3.00;93.70
46378;DHT22;32083;47.360;9.650;2024-01-16T12:25:25;3.00;94.20
46378;DHT22;32083;47.360;9.650;2024-01-16T12:28:01;3.10;94.30
46378;DHT22;32083;47.360;9.650;2024-01-16T12:30:30;3.10;93.20
46378;DHT22;32083;47.360;9.650;2024-01-16T12:33:22;3.20;93.40
46378;DHT22;32083;47.360;9.650;2024-01-16T12:38:17;3.10;91.40
46378;DHT22;32083;47.360;9.650;2024-01-16T12:40:49;3.10;92.10
46378;DHT22;32083;47.360;9.650;2024-01-16T12:43:18;3.00;92.30
46378;DHT22;32083;47.360;9.650;2024-01-16T12:45:44;3.00;92.70
46378;DHT22;32083;47.360;9.650;2024-01-16T12:48:11;3.00;92.80
46378;DHT22;32083;47.360;9.650;2024-01-16T12:50:37;2.90;92.70
46378;DHT22;32083;47.360;9.650;2024-01-16T12:53:11;2.90;92.90
46378;DHT22;32083;47.360;9.650;2024-01-16T12:55:39;2.90;93.90
46378;DHT22;32083;47.360;9.650;2024-01-16T12:58:19;2.90;94.20
46378;DHT22;32083;47.360;9.650;2024-01-16T13:00:47;2.90;94.10
46378;DHT22;32083;47.360;9.650;2024-01-16T13:03:25;2.90;93.40
46378;DHT22;32083;47.360;9.650;2024-01-16T13:06:00;2.80;93.40
46378;DHT22;32083;47.360;9.650;2024-01-16T13:08:27;2.80;92.70
46378;DHT22;32083;47.360;9.650;2024-01-16T13:11:08;2.80;92.60
46378;DHT22;32083;47.360;9.650;2024-01-16T13:13:35;2.70;93.10
46378;DHT22;32083;47.360;9.650;2024-01-16T13:16:04;2.70;93.70
46378;DHT22;32083;47.360;9.650;2024-01-16T13:18:33;2.70;93.30
46378;DHT22;32083;47.360;9.650;2024-01-16T13:21:00;2.70;93.70
46378;DHT22;32083;47.360;9.650;2024-01-16T13:23:27;2.70;92.70
46378;DHT22;32083;47.360;9.650;2024-01-16T13:25:55;2.60;93.40
46378;DHT22;32083;47.360;9.650;2024-01-16T13:28:29;2.70;93.20
46378;DHT22;32083;47.360;9.650;2024-01-16T13:30:55;2.70;93.60
46378;DHT22;32083;47.360;9.650;2024-01-16T13:33:25;2.60;92.50
46378;DHT22;32083;47.360;9.650;2024-01-16T13:35:53;2.60;92.40
46378;DHT22;32083;47.360;9.650;2024-01-16T13:38:20;2.60;92.30
46378;DHT22;32083;47.360;9.650;2024-01-16T13:40:47;2.60;93.30
46378;DHT22;32083;47.360;9.650;2024-01-16T13:43:13;2.60;93.30
46378;DHT22;32083;47.360;9.650;2024-01-16T13:45:39;2.70;92.40
46378;DHT22;32083;47.360;9.650;2024-01-16T13:48:07;2.70;92.80
46378;DHT22;32083;47.360;9.650;2024-01-16T13:50:33;2.70;92.50
46378;DHT22;32083;47.360;9.650;2024-01-16T13:53:03;2.70;92.80
46378;DHT22;32083;47.360;9.650;2024-01-16T13:55:29;2.70;92.10
46378;DHT22;32083;47.360;9.650;2024-01-16T13:57:57;2.70;92.00
46378;DHT22;32083;47.360;9.650;2024-01-16T14:00:24;2.70;92.10
46378;DHT22;32083;47.360;9.650;2024-01-16T14:02:50;2.80;92.00
46378;DHT22;32083;47.360;9.650;2024-01-16T14:05:18;2.80;92.10
46378;DHT22;32083;47.360;9.650;2024-01-16T14:07:46;2.80;91.70
46378;DHT22;32083;47.360;9.650;2024-01-16T14:10:15;2.90;92.30
46378;DHT22;32083;47.360;9.650;2024-01-16T14:12:43;2.90;91.40
46378;DHT22;32083;47.360;9.650;2024-01-16T14:15:10;2.90;91.40
46378;DHT22;32083;47.360;9.650;2024-01-16T14:17:52;2.90;91.00
46378;DHT22;32083;47.360;9.650;2024-01-16T14:20:21;3.00;91.00
46378;DHT22;32083;47.360;9.650;2024-01-16T14:22:49;3.00;91.70
46378;DHT22;32083;47.360;9.650;2024-01-16T14:25:15;3.00;91.90
46378;DHT22;32083;47.360;9.650;2024-01-16T14:27:47;3.00;90.90
46378;DHT22;32083;47.360;9.650;2024-01-16T14:30:15;3.00;90.70
46378;DHT22;32083;47.360;9.650;2024-01-16T14:32:43;3.00;90.90
46378;DHT22;32083;47.360;9.650;2024-01-16T14:35:10;3.00;91.20
46378;DHT22;32083;47.360;9.650;2024-01-16T14:37:37;3.00;91.00
46378;DHT22;32083;47.360;9.650;2024-01-16T14:40:05;3.00;91.00
46378;DHT22;32083;47.360;9.650;2024-01-16T14:42:41;3.00;91.40
46378;DHT22;32083;47.360;9.650;2024-01-16T14:45:14;3.00;92.10
46378;DHT22;32083;47.360;9.650;2024-01-16T14:47:40;3.00;91.30
46378;DHT22;32083;47.360;9.650;2024-01-16T14:50:09;3.00;91.20
46378;DHT22;32083;47.360;9.650;2024-01-16T14:52:36;3.00;91.20
46378;DHT22;32083;47.360;9.650;2024-01-16T14:55:02;3.00;91.30
46378;DHT22;32083;47.360;9.650;2024-01-16T14:57:33;3.10;91.30
46378;DHT22;32083;47.360;9.650;2024-01-16T15:00:11;3.00;91.20
46378;DHT22;32083;47.360;9.650;2024-01-16T15:02:50;3.00;90.80
46378;DHT22;32083;47.360;9.650;2024-01-16T15:05:17;3.10;91.40
46378;DHT22;32083;47.360;9.650;2024-01-16T15:07:44;3.00;91.00
46378;DHT22;32083;47.360;9.650;2024-01-16T15:10:11;3.00;91.10
46378;DHT22;32083;47.360;9.650;2024-01-16T15:12:40;3.00;91.30
46378;DHT22;32083;47.360;9.650;2024-01-16T15:15:11;3.00;91.50
46378;DHT22;32083;47.360;9.650;2024-01-16T15:17:41;3.00;91.40
46378;DHT22;32083;47.360;9.650;2024-01-16T15:20:08;2.90;91.30
46378;DHT22;32083;47.360;9.650;2024-01-16T15:22:43;2.90;91.80
46378;DHT22;32083;47.360;9.650;2024-01-16T15:25:12;2.90;91.50
46378;DHT22;32083;47.360;9.650;2024-01-16T15:27:41;2.80;91.80
46378;DHT22;32083;47.360;9.650;2024-01-16T15:30:08;2.70;92.40
46378;DHT22;32083;47.360;9.650;2024-01-16T15:32:36;2.60;92.30
46378;DHT22;32083;47.360;9.650;2024-01-16T15:35:03;2.60;92.80
46378;DHT22;32083;47.360;9.650;2024-01-16T15:37:33;2.40;92.90
46378;DHT22;32083;47.360;9.650;2024-01-16T15:39:59;2.40;93.10
46378;DHT22;32083;47.360;9.650;2024-01-16T15:42:26;2.30;93.20
46378;DHT22;32083;47.360;9.650;2024-01-16T15:44:52;2.30;93.20
46378;DHT22;32083;47.360;9.650;2024-01-16T15:47:21;2.20;93.10
46378;DHT22;32083;47.360;9.650;2024-01-16T15:49:47;2.10;93.40
46378;DHT22;32083;47.360;9.650;2024-01-16T15:52:13;2.10;93.30
46378;DHT22;32083;47.360;9.650;2024-01-16T15:54:40;2.00;93.50
46378;DHT22;32083;47.360;9.650;2024-01-16T15:57:07;1.80;93.60
46378;DHT22;32083;47.360;9.650;2024-01-16T15:59:33;1.80;93.70
46378;DHT22;32083;47.360;9.650;2024-01-16T16:01:59;1.70;93.90